createdAt,value
2018-06-10T00:00:19.970Z,20.60
2018-06-10T00:02:52.174Z,20.60
2018-06-10T00:05:22.188Z,20.50
2018-06-10T00:07:58.182Z,20.50
2018-06-10T00:10:28.617Z,20.50
2018-06-10T00:13:01.032Z,20.40
2018-06-10T00:15:32.129Z,20.40
2018-06-10T00:18:02.194Z,20.30
2018-06-10T00:20:34.181Z,20.30
2018-06-10T00:23:05.101Z,20.20
2018-06-10T00:25:37.748Z,20.30
2018-06-10T00:28:08.780Z,20.20
2018-06-10T00:30:40.467Z,20.10
2018-06-10T00:33:11.300Z,20.10
2018-06-10T00:35:40.331Z,20.00
2018-06-10T00:38:11.251Z,20.00
2018-06-10T00:40:41.079Z,20.00
2018-06-10T00:43:12.598Z,19.90
2018-06-10T00:45:43.172Z,19.90
2018-06-10T00:48:12.697Z,19.90
2018-06-10T00:50:42.466Z,19.90
2018-06-10T00:53:13.411Z,19.90
2018-06-10T00:55:42.258Z,19.90
2018-06-10T00:58:19.608Z,19.90
2018-06-10T01:00:49.370Z,19.90
2018-06-10T01:03:19.355Z,19.90
2018-06-10T01:05:50.103Z,19.80
2018-06-10T01:08:22.687Z,19.90
2018-06-10T01:10:53.193Z,19.90
2018-06-10T01:13:22.863Z,19.80
2018-06-10T01:15:52.030Z,19.80
2018-06-10T01:18:24.657Z,19.80
2018-06-10T01:20:53.835Z,19.80
2018-06-10T01:23:27.545Z,19.70
2018-06-10T01:26:00.772Z,19.70
2018-06-10T01:28:31.070Z,19.70
2018-06-10T01:31:00.535Z,19.60
2018-06-10T01:33:37.759Z,19.70
2018-06-10T01:36:06.933Z,19.60
2018-06-10T01:38:37.750Z,19.60
2018-06-10T01:41:07.706Z,19.60
2018-06-10T01:43:36.826Z,19.60
2018-06-10T01:46:06.401Z,19.60
2018-06-10T01:48:37.152Z,19.60
2018-06-10T01:51:07.023Z,19.60
2018-06-10T01:53:40.170Z,19.60
2018-06-10T01:56:09.398Z,19.50
2018-06-10T01:58:42.283Z,19.50
2018-06-10T02:01:12.170Z,19.40
2018-06-10T02:03:43.098Z,19.40
2018-06-10T02:06:12.098Z,19.40
2018-06-10T02:08:46.417Z,19.30
2018-06-10T02:11:17.710Z,19.40
2018-06-10T02:13:48.162Z,19.30
2018-06-10T02:16:18.362Z,19.30
2018-06-10T02:18:50.638Z,19.30
2018-06-10T02:21:20.919Z,19.30
2018-06-10T02:23:52.277Z,19.30
2018-06-10T02:26:21.914Z,19.30
2018-06-10T02:28:55.470Z,19.30
2018-06-10T02:31:25.895Z,19.30
2018-06-10T02:33:57.916Z,19.30
2018-06-10T02:36:35.630Z,19.30
2018-06-10T02:39:07.384Z,19.30
2018-06-10T02:44:41.043Z,19.20
2018-06-10T02:47:10.855Z,19.20
2018-06-10T02:49:52.176Z,19.20
2018-06-10T02:52:21.996Z,19.20
2018-06-10T02:57:43.869Z,19.20
2018-06-10T03:00:13.881Z,19.20
2018-06-10T03:02:46.914Z,19.10
2018-06-10T03:05:26.007Z,19.20
2018-06-10T03:08:10.208Z,19.10
2018-06-10T03:10:39.225Z,19.10
2018-06-10T03:13:22.324Z,19.00
2018-06-10T03:15:51.630Z,19.00
2018-06-10T03:18:20.759Z,19.00
2018-06-10T03:20:51.754Z,18.90
2018-06-10T03:23:21.206Z,18.90
2018-06-10T03:25:51.052Z,18.90
2018-06-10T03:31:09.069Z,18.80
2018-06-10T03:33:38.626Z,18.90
2018-06-10T03:36:08.424Z,18.90
2018-06-10T03:38:37.814Z,18.90
2018-06-10T03:47:11.612Z,18.80
2018-06-10T03:49:55.538Z,18.80
2018-06-10T03:52:49.706Z,18.80
2018-06-10T03:55:19.714Z,18.80
2018-06-10T03:57:50.794Z,18.80
2018-06-10T04:00:34.725Z,18.90
2018-06-10T04:03:04.121Z,18.90
2018-06-10T04:05:41.717Z,18.90
2018-06-10T04:10:55.312Z,18.90
2018-06-10T04:13:24.754Z,18.90
2018-06-10T04:15:54.277Z,18.80
2018-06-10T04:18:24.325Z,18.90
2018-06-10T04:20:53.669Z,18.90
2018-06-10T04:23:22.862Z,18.90
2018-06-10T04:25:52.206Z,18.90
2018-06-10T04:28:22.176Z,18.90
2018-06-10T04:30:51.893Z,18.90
2018-06-10T04:33:21.232Z,18.90
2018-06-10T04:35:49.982Z,18.90
2018-06-10T04:38:18.893Z,18.90
2018-06-10T04:41:06.187Z,19.00
2018-06-10T04:43:57.316Z,19.00
2018-06-10T04:46:28.713Z,18.90
2018-06-10T04:48:59.917Z,18.90
2018-06-10T04:51:28.900Z,19.00
2018-06-10T04:54:01.345Z,19.00
2018-06-10T04:56:31.491Z,19.00
2018-06-10T04:59:00.893Z,19.00
2018-06-10T05:01:31.342Z,19.00
2018-06-10T05:04:00.306Z,19.10
2018-06-10T05:06:29.817Z,19.10
2018-06-10T05:09:01.355Z,19.10
2018-06-10T05:11:39.922Z,19.10
2018-06-10T05:14:21.441Z,19.20
2018-06-10T05:17:05.520Z,19.20
2018-06-10T05:19:35.617Z,19.10
2018-06-10T05:22:07.883Z,19.20
2018-06-10T05:24:37.420Z,19.20
2018-06-10T05:27:09.580Z,19.30
2018-06-10T05:29:44.378Z,19.30
2018-06-10T05:32:13.434Z,19.30
2018-06-10T05:34:42.583Z,19.40
2018-06-10T05:37:13.266Z,19.50
2018-06-10T05:39:42.417Z,19.50
2018-06-10T05:42:15.706Z,19.60
2018-06-10T05:44:44.598Z,19.60
2018-06-10T05:47:16.805Z,19.70
2018-06-10T05:49:46.347Z,19.80
2018-06-10T05:52:19.194Z,19.80
2018-06-10T05:54:48.237Z,19.80
2018-06-10T05:57:20.749Z,19.90
2018-06-10T05:59:50.294Z,19.90
2018-06-10T06:02:22.769Z,20.00
2018-06-10T06:04:51.770Z,20.00
2018-06-10T06:07:24.178Z,20.00
2018-06-10T06:09:52.999Z,20.00
2018-06-10T06:12:26.420Z,20.00
2018-06-10T06:14:55.150Z,19.90
2018-06-10T06:17:31.121Z,20.00
2018-06-10T06:20:00.339Z,20.00
2018-06-10T06:22:30.330Z,20.10
2018-06-10T06:24:59.974Z,20.10
2018-06-10T06:27:33.047Z,20.20
2018-06-10T06:30:02.262Z,20.20
2018-06-10T06:32:34.683Z,20.30
2018-06-10T06:35:04.135Z,20.30
2018-06-10T06:37:36.948Z,20.40
2018-06-10T06:40:06.024Z,20.30
2018-06-10T06:42:38.331Z,20.30
2018-06-10T06:45:07.589Z,20.40
2018-06-10T06:47:45.138Z,20.30
2018-06-10T06:50:13.899Z,20.30
2018-06-10T06:52:43.441Z,20.40
2018-06-10T06:55:13.521Z,20.40
2018-06-10T06:57:45.316Z,20.50
2018-06-10T07:00:14.074Z,20.50
2018-06-10T07:02:47.037Z,20.50
2018-06-10T07:05:15.822Z,20.50
2018-06-10T07:07:49.115Z,20.40
2018-06-10T07:10:18.198Z,20.40
2018-06-10T07:12:54.966Z,20.50
2018-06-10T07:15:23.778Z,20.50
2018-06-10T07:17:53.643Z,20.40
2018-06-10T07:20:23.962Z,20.50
2018-06-10T07:22:57.582Z,20.40
2018-06-10T07:25:26.638Z,20.20
2018-06-10T07:27:58.432Z,20.30
2018-06-10T07:30:27.438Z,20.30
2018-06-10T07:33:01.168Z,20.30
2018-06-10T07:35:29.947Z,20.40
2018-06-10T07:38:02.526Z,20.50
2018-06-10T07:40:31.575Z,20.50
2018-06-10T07:43:04.742Z,20.60
2018-06-10T07:45:33.751Z,20.60
2018-06-10T07:48:07.018Z,20.70
2018-06-10T07:50:35.862Z,20.80
2018-06-10T07:53:12.116Z,20.80
2018-06-10T07:55:41.200Z,20.80
2018-06-10T07:58:12.253Z,20.80
2018-06-10T08:00:42.013Z,20.90
2018-06-10T08:03:14.778Z,20.70
2018-06-10T08:05:44.729Z,20.70
2018-06-10T08:08:15.229Z,20.80
2018-06-10T08:10:44.254Z,20.90
2018-06-10T08:13:16.636Z,20.80
2018-06-10T08:15:47.268Z,21.00
2018-06-10T08:18:18.560Z,21.10
2018-06-10T08:20:47.365Z,21.10
2018-06-10T08:23:23.983Z,21.10
2018-06-10T08:25:53.041Z,21.10
2018-06-10T08:28:22.257Z,21.20
2018-06-10T08:30:51.880Z,21.20
2018-06-10T08:33:26.314Z,21.20
2018-06-10T08:35:57.631Z,21.20
2018-06-10T08:38:26.454Z,21.20
2018-06-10T08:40:55.481Z,21.20
2018-06-10T08:43:30.977Z,21.20
2018-06-10T08:46:00.109Z,21.20
2018-06-10T08:48:30.233Z,21.30
2018-06-10T08:50:59.353Z,21.20
2018-06-10T08:53:38.434Z,21.30
2018-06-10T08:56:07.598Z,21.30
2018-06-10T08:58:36.932Z,21.30
2018-06-10T09:01:05.955Z,21.40
2018-06-10T09:03:37.017Z,21.40
2018-06-10T09:06:06.279Z,21.40
2018-06-10T09:08:38.944Z,21.40
2018-06-10T09:11:09.395Z,21.40
2018-06-10T09:13:41.465Z,21.40
2018-06-10T09:16:10.234Z,21.40
2018-06-10T09:18:43.237Z,21.30
2018-06-10T09:21:12.417Z,21.30
2018-06-10T09:23:50.256Z,21.30
2018-06-10T09:26:19.338Z,21.30
2018-06-10T09:28:48.456Z,21.20
2018-06-10T09:31:19.685Z,21.20
2018-06-10T09:33:49.203Z,21.20
2018-06-10T09:36:19.312Z,21.20
2018-06-10T09:38:52.179Z,21.20
2018-06-10T09:41:21.029Z,21.30
2018-06-10T09:43:54.599Z,21.20
2018-06-10T09:46:26.488Z,21.30
2018-06-10T09:48:57.254Z,21.30
2018-06-10T09:51:26.257Z,21.40
2018-06-10T09:54:00.782Z,21.50
2018-06-10T09:56:29.708Z,21.60
2018-06-10T09:59:01.818Z,21.60
2018-06-10T10:01:31.038Z,21.60
2018-06-10T10:04:07.173Z,21.70
2018-06-10T10:06:36.676Z,21.80
2018-06-10T10:09:07.937Z,21.80
2018-06-10T10:11:37.643Z,21.90
2018-06-10T10:14:07.429Z,21.90
2018-06-10T10:16:36.424Z,21.80
2018-06-10T10:19:12.418Z,21.90
2018-06-10T10:21:41.225Z,21.90
2018-06-10T10:24:13.698Z,22.00
2018-06-10T10:26:42.535Z,22.10
2018-06-10T10:29:14.324Z,22.10
2018-06-10T10:31:44.638Z,22.20
2018-06-10T10:34:17.781Z,22.10
2018-06-10T10:36:46.876Z,22.00
2018-06-10T10:39:19.178Z,21.90
2018-06-10T10:41:51.781Z,21.90
2018-06-10T10:44:22.865Z,21.80
2018-06-10T10:46:51.783Z,21.90
2018-06-10T10:49:23.442Z,21.90
2018-06-10T10:51:52.823Z,21.90
2018-06-10T10:54:25.319Z,21.90
2018-06-10T10:56:55.465Z,21.90
2018-06-10T10:59:27.854Z,21.90
2018-06-10T11:01:56.687Z,22.00
2018-06-10T11:04:29.790Z,21.90
2018-06-10T11:06:58.722Z,22.00
2018-06-10T11:09:31.361Z,22.00
2018-06-10T11:12:02.113Z,22.10
2018-06-10T11:14:32.587Z,22.20
2018-06-10T11:17:03.102Z,22.30
2018-06-10T11:19:36.712Z,22.30
2018-06-10T11:22:09.375Z,22.40
2018-06-10T11:24:40.096Z,22.40
2018-06-10T11:27:09.368Z,22.50
2018-06-10T11:29:47.746Z,22.50
2018-06-10T11:32:19.712Z,22.40
2018-06-10T11:34:48.874Z,22.40
2018-06-10T11:37:17.666Z,22.40
2018-06-10T11:39:47.688Z,22.40
2018-06-10T11:42:17.002Z,22.40
2018-06-10T11:44:46.030Z,22.40
2018-06-10T11:47:14.870Z,22.30
2018-06-10T11:49:52.735Z,22.20
2018-06-10T11:52:22.178Z,22.30
2018-06-10T11:54:52.719Z,22.30
2018-06-10T11:57:22.157Z,22.30
2018-06-10T11:59:54.781Z,22.40
2018-06-10T12:02:23.701Z,22.50
2018-06-10T12:04:53.941Z,22.60
2018-06-10T12:07:22.827Z,22.50
2018-06-10T12:10:00.560Z,22.50
2018-06-10T12:12:31.224Z,22.50
2018-06-10T12:15:00.936Z,22.50
2018-06-10T12:17:29.803Z,22.50
2018-06-10T12:20:03.737Z,22.50
2018-06-10T12:22:32.973Z,22.50
2018-06-10T12:25:04.379Z,22.40
2018-06-10T12:27:33.685Z,22.40
2018-06-10T12:30:06.653Z,22.30
2018-06-10T12:32:36.493Z,22.20
2018-06-10T12:35:08.303Z,22.30
2018-06-10T12:37:37.616Z,22.30
2018-06-10T12:40:17.647Z,22.30
2018-06-10T12:42:47.340Z,22.50
2018-06-10T12:45:16.607Z,22.60
2018-06-10T12:47:46.003Z,22.80
2018-06-10T12:50:15.421Z,22.90
2018-06-10T12:52:44.536Z,23.00
2018-06-10T12:55:18.170Z,23.10
2018-06-10T12:57:48.126Z,23.10
2018-06-10T13:00:21.631Z,23.20
2018-06-10T13:02:51.102Z,23.50
2018-06-10T13:05:20.348Z,23.90
2018-06-10T13:07:50.325Z,24.20
2018-06-10T13:10:22.372Z,24.30
2018-06-10T13:12:52.401Z,24.20
2018-06-10T13:15:24.754Z,24.20
2018-06-10T13:17:55.235Z,24.30
2018-06-10T13:20:27.719Z,24.60
2018-06-10T13:22:56.725Z,24.70
2018-06-10T13:25:28.172Z,24.70
2018-06-10T13:27:58.263Z,24.60
2018-06-10T13:30:30.666Z,24.60
2018-06-10T13:33:02.159Z,24.50
2018-06-10T13:35:32.746Z,24.40
2018-06-10T13:38:03.045Z,24.40
2018-06-10T13:40:35.285Z,24.30
2018-06-10T13:43:05.869Z,24.20
2018-06-10T13:45:36.830Z,24.20
2018-06-10T13:49:36.768Z,24.50
2018-06-10T13:52:06.423Z,24.70
2018-06-10T13:54:45.901Z,25.00
2018-06-10T13:57:17.178Z,25.10
2018-06-10T13:59:48.148Z,25.30
2018-06-10T14:02:21.204Z,25.10
2018-06-10T14:04:53.867Z,24.80
2018-06-10T14:07:24.846Z,25.10
2018-06-10T14:09:55.925Z,25.40
2018-06-10T14:12:26.181Z,25.70
2018-06-10T14:14:59.636Z,25.90
2018-06-10T14:17:30.170Z,25.90
2018-06-10T14:20:00.233Z,26.00
2018-06-10T14:22:29.606Z,25.70
2018-06-10T14:25:00.177Z,25.60
2018-06-10T14:27:29.779Z,25.40
2018-06-10T14:29:59.189Z,25.30
2018-06-10T14:32:28.512Z,25.20
2018-06-10T14:34:58.193Z,25.00
2018-06-10T14:37:29.748Z,25.00
2018-06-10T14:40:03.566Z,25.10
2018-06-10T14:42:34.256Z,25.10
2018-06-10T14:45:04.161Z,25.40
2018-06-10T14:47:34.134Z,25.50
2018-06-10T14:50:06.194Z,25.60
2018-06-10T14:52:37.373Z,25.70
2018-06-10T14:55:07.201Z,25.80
2018-06-10T14:57:38.352Z,25.90
2018-06-10T15:00:09.859Z,26.10
2018-06-10T15:02:39.363Z,26.20
2018-06-10T15:05:17.715Z,26.10
2018-06-10T15:07:48.497Z,26.10
2018-06-10T15:10:18.253Z,26.20
2018-06-10T15:12:48.190Z,26.30
2018-06-10T15:15:18.319Z,26.20
2018-06-10T15:17:50.414Z,26.10
2018-06-10T15:20:21.215Z,26.10
2018-06-10T15:22:51.566Z,26.00
2018-06-10T15:25:20.739Z,25.90
2018-06-10T15:27:50.753Z,25.70
2018-06-10T15:30:22.254Z,25.60
2018-06-10T15:32:52.346Z,25.50
2018-06-10T15:35:23.940Z,25.60
2018-06-10T15:37:55.617Z,25.60
2018-06-10T15:40:34.252Z,25.60
2018-06-10T15:43:03.366Z,25.50
2018-06-10T15:45:33.756Z,25.40
2018-06-10T15:48:03.582Z,25.20
2018-06-10T15:50:34.570Z,25.10
2018-06-10T15:53:06.611Z,25.10
2018-06-10T15:58:06.272Z,25.00
2018-06-10T16:00:36.583Z,24.90
2018-06-10T16:03:06.920Z,24.80
2018-06-10T16:05:39.215Z,24.80
2018-06-10T16:08:10.318Z,24.70
2018-06-10T16:10:39.166Z,24.70
2018-06-10T16:13:08.114Z,24.60
2018-06-10T16:15:38.670Z,24.60
2018-06-10T16:18:08.797Z,24.50
2018-06-10T16:20:42.164Z,24.50
2018-06-10T16:23:12.090Z,24.50
2018-06-10T16:25:44.302Z,24.50
2018-06-10T16:28:13.265Z,24.50
2018-06-10T16:30:47.182Z,24.30
2018-06-10T16:33:26.213Z,24.30
2018-06-10T16:36:02.313Z,24.10
2018-06-10T16:38:33.191Z,24.00
2018-06-10T16:41:06.221Z,24.00
2018-06-10T16:43:36.652Z,23.90
2018-06-10T16:46:08.984Z,23.90
2018-06-10T16:48:39.484Z,23.80
2018-06-10T16:51:09.384Z,23.80
2018-06-10T16:53:38.916Z,23.80
2018-06-10T16:56:08.648Z,23.80
2018-06-10T16:58:38.300Z,23.80
2018-06-10T17:01:10.490Z,23.90
2018-06-10T17:03:41.340Z,23.90
2018-06-10T17:06:13.611Z,23.90
2018-06-10T17:08:46.065Z,23.90
2018-06-10T17:11:20.337Z,24.00
2018-06-10T17:13:52.343Z,24.00
2018-06-10T17:16:23.886Z,24.00
2018-06-10T17:18:53.494Z,24.00
2018-06-10T17:21:24.306Z,24.10
2018-06-10T17:23:53.744Z,24.10
2018-06-10T17:26:25.426Z,24.10
2018-06-10T17:28:56.620Z,24.10
2018-06-10T17:31:26.484Z,24.10
2018-06-10T17:33:57.527Z,24.00
2018-06-10T17:36:27.673Z,24.10
2018-06-10T17:38:56.930Z,24.00
2018-06-10T17:41:28.091Z,24.00
2018-06-10T17:43:59.452Z,24.00
2018-06-10T17:46:28.730Z,23.90
2018-06-10T17:49:02.641Z,23.90
2018-06-10T17:51:33.702Z,23.90
2018-06-10T17:54:05.492Z,23.80
2018-06-10T17:56:35.325Z,23.80
2018-06-10T17:59:05.081Z,23.70
2018-06-10T18:01:34.794Z,23.70
2018-06-10T18:04:04.433Z,23.60
2018-06-10T18:06:34.714Z,23.60
2018-06-10T18:09:08.715Z,23.60
2018-06-10T18:11:40.180Z,23.50
2018-06-10T18:14:09.607Z,23.50
2018-06-10T18:16:41.645Z,23.40
2018-06-10T18:19:13.066Z,23.40
2018-06-10T18:21:42.592Z,23.30
2018-06-10T18:24:12.175Z,23.30
2018-06-10T18:26:41.462Z,23.30
2018-06-10T18:29:11.242Z,23.20
2018-06-10T18:31:40.633Z,23.20
2018-06-10T18:34:11.097Z,23.10
2018-06-10T18:36:42.783Z,23.10
2018-06-10T18:39:23.841Z,23.00
2018-06-10T18:41:58.535Z,23.00
2018-06-10T18:44:27.464Z,22.90
2018-06-10T18:46:56.896Z,22.90
2018-06-10T18:49:26.296Z,22.80
2018-06-10T18:51:55.437Z,22.80
2018-06-10T18:54:25.463Z,22.80
2018-06-10T18:56:55.295Z,22.80
2018-06-10T18:59:24.724Z,22.70
2018-06-10T19:01:54.122Z,22.70
2018-06-10T19:04:26.673Z,22.70
2018-06-10T19:06:56.521Z,22.70
2018-06-10T19:12:04.366Z,22.60
2018-06-10T19:14:34.230Z,22.60
2018-06-10T19:17:04.177Z,22.50
2018-06-10T19:19:35.548Z,22.50
2018-06-10T19:22:08.225Z,22.50
2018-06-10T19:31:48.712Z,22.50
2018-06-10T19:34:18.925Z,22.40
2018-06-10T19:36:53.450Z,22.30
2018-06-10T19:39:22.633Z,22.30
2018-06-10T19:41:54.678Z,22.20
2018-06-10T19:44:27.377Z,22.20
2018-06-10T19:49:38.198Z,22.10
2018-06-10T19:52:14.454Z,22.10
2018-06-10T19:54:45.706Z,22.10
2018-06-10T19:57:15.449Z,22.00
2018-06-10T19:59:46.891Z,22.00
2018-06-10T20:02:18.224Z,21.90
2018-06-10T20:04:48.180Z,21.90
2018-06-10T20:07:18.771Z,21.90
2018-06-10T20:09:49.233Z,21.80
2018-06-10T20:12:19.420Z,21.80
2018-06-10T20:14:49.627Z,21.70
2018-06-10T20:17:19.730Z,21.70
2018-06-10T20:19:49.400Z,21.70
2018-06-10T20:22:26.078Z,21.60
2018-06-10T20:24:56.350Z,21.60
2018-06-10T20:27:26.567Z,21.60
2018-06-10T20:30:00.063Z,21.60
2018-06-10T20:32:31.235Z,21.50
2018-06-10T20:35:02.107Z,21.50
2018-06-10T20:37:33.785Z,21.50
2018-06-10T20:40:06.367Z,21.40
2018-06-10T20:42:36.595Z,21.40
2018-06-10T20:45:07.679Z,21.40
2018-06-10T20:47:39.097Z,21.40
2018-06-10T20:50:10.826Z,21.30
2018-06-10T20:52:41.350Z,21.20
2018-06-10T21:02:26.423Z,21.00
2018-06-10T21:04:55.773Z,20.90
2018-06-10T21:07:29.718Z,20.90
2018-06-10T21:10:04.613Z,20.90
2018-06-10T21:12:44.212Z,20.80
2018-06-10T21:15:13.766Z,20.80
2018-06-10T21:17:49.319Z,20.80
2018-06-10T21:20:23.450Z,20.80
2018-06-10T21:22:58.349Z,20.80
2018-06-10T21:25:28.306Z,20.80
2018-06-10T21:27:58.669Z,20.80
2018-06-10T21:30:29.606Z,20.80
2018-06-10T21:33:03.746Z,20.80
2018-06-10T21:35:37.014Z,20.70
2018-06-10T21:38:07.794Z,20.70
2018-06-10T21:40:40.592Z,20.60
2018-06-10T21:43:09.821Z,20.60
2018-06-10T21:45:39.229Z,20.60
2018-06-10T21:48:08.745Z,20.60
2018-06-10T21:50:38.737Z,20.60
2018-06-10T21:53:08.022Z,20.50
2018-06-10T21:55:37.734Z,20.50
2018-06-10T21:58:07.182Z,20.50
2018-06-10T22:00:36.854Z,20.40
2018-06-10T22:03:07.157Z,20.40
2018-06-10T22:05:36.657Z,20.50
2018-06-10T22:08:10.107Z,20.40
2018-06-10T22:10:40.189Z,20.50
2018-06-10T22:13:13.081Z,20.40
2018-06-10T22:15:43.272Z,20.30
2018-06-10T22:18:14.637Z,20.40
2018-06-10T22:23:17.548Z,20.40
2018-06-10T22:25:48.217Z,20.40
2018-06-10T22:28:17.538Z,20.30
2018-06-10T22:30:59.668Z,20.30
2018-06-10T22:33:29.814Z,20.30
2018-06-10T22:36:00.698Z,20.20
2018-06-10T22:38:30.599Z,20.30
2018-06-10T22:41:00.289Z,20.20
2018-06-10T22:43:29.173Z,20.20
2018-06-10T22:45:59.074Z,20.10
2018-06-10T22:48:28.989Z,20.10
2018-06-10T22:51:00.906Z,20.00
2018-06-10T22:54:38.769Z,20.00
2018-06-10T22:57:08.599Z,20.00
2018-06-10T22:59:37.864Z,20.00
2018-06-10T23:02:08.254Z,19.90
2018-06-10T23:04:38.445Z,19.90
2018-06-10T23:07:07.553Z,19.90
2018-06-10T23:09:36.327Z,19.80
2018-06-10T23:12:06.223Z,19.80
2018-06-10T23:14:36.052Z,19.80
2018-06-10T23:17:05.527Z,19.70
2018-06-10T23:19:34.414Z,19.60
2018-06-10T23:22:03.549Z,19.60
2018-06-10T23:24:36.301Z,19.60
2018-06-10T23:27:06.724Z,19.60
2018-06-10T23:29:37.349Z,19.60
2018-06-10T23:32:06.190Z,19.60
2018-06-10T23:34:42.594Z,19.60
2018-06-10T23:37:11.923Z,19.60
2018-06-10T23:39:42.699Z,19.60
2018-06-10T23:42:11.427Z,19.60
2018-06-10T23:44:44.806Z,19.60
2018-06-10T23:47:14.015Z,19.60
2018-06-10T23:49:48.159Z,19.50
2018-06-10T23:52:17.283Z,19.50
2018-06-10T23:54:49.087Z,19.60
2018-06-10T23:57:17.831Z,19.50
2018-06-10T23:59:50.719Z,19.60
